sensor_id;sensor_type;location;lat;lon;timestamp;temperature;humidity
10536;DHT22;5316;49.538;8.352;2022-07-21T00:01:59;22.80;99.90
10536;DHT22;5316;49.538;8.352;2022-07-21T00:04:25;22.80;99.90
10536;DHT22;5316;49.538;8.352;2022-07-21T00:06:52;22.90;99.90
10536;DHT22;5316;49.538;8.352;2022-07-21T00:09:19;22.80;99.90
10536;DHT22;5316;49.538;8.352;2022-07-21T00:11:45;22.80;99.90
10536;DHT22;5316;49.538;8.352;2022-07-21T00:14:13;22.80;99.90
10536;DHT22;5316;49.538;8.352;2022-07-21T00:16:41;22.80;99.90
10536;DHT22;5316;49.538;8.352;2022-07-21T00:19:10;22.50;99.90
10536;DHT22;5316;49.538;8.352;2022-07-21T00:21:37;22.40;99.90
10536;DHT22;5316;49.538;8.352;2022-07-21T00:24:05;22.40;99.90
10536;DHT22;5316;49.538;8.352;2022-07-21T00:26:31;22.50;99.90
10536;DHT22;5316;49.538;8.352;2022-07-21T00:28:58;22.40;99.90
10536;DHT22;5316;49.538;8.352;2022-07-21T00:31:25;22.40;99.90
10536;DHT22;5316;49.538;8.352;2022-07-21T00:33:52;22.40;99.90
10536;DHT22;5316;49.538;8.352;2022-07-21T00:36:20;22.20;99.90
10536;DHT22;5316;49.538;8.352;2022-07-21T00:38:47;22.10;99.90
10536;DHT22;5316;49.538;8.352;2022-07-21T00:41:14;22.00;99.90
10536;DHT22;5316;49.538;8.352;2022-07-21T00:43:41;22.00;99.90
10536;DHT22;5316;49.538;8.352;2022-07-21T00:46:08;22.00;99.90
10536;DHT22;5316;49.538;8.352;2022-07-21T00:48:34;22.00;99.90
10536;DHT22;5316;49.538;8.352;2022-07-21T00:51:01;22.10;99.90
10536;DHT22;5316;49.538;8.352;2022-07-21T00:53:29;22.10;99.90
10536;DHT22;5316;49.538;8.352;2022-07-21T00:55:57;22.20;99.90
10536;DHT22;5316;49.538;8.352;2022-07-21T00:58:24;22.30;99.90
10536;DHT22;5316;49.538;8.352;2022-07-21T01:00:51;22.40;99.90
10536;DHT22;5316;49.538;8.352;2022-07-21T01:03:18;22.40;99.90
10536;DHT22;5316;49.538;8.352;2022-07-21T01:05:44;22.50;99.90
10536;DHT22;5316;49.538;8.352;2022-07-21T01:08:11;22.50;99.90
10536;DHT22;5316;49.538;8.352;2022-07-21T01:10:39;22.50;99.90
10536;DHT22;5316;49.538;8.352;2022-07-21T01:13:06;22.50;99.90
10536;DHT22;5316;49.538;8.352;2022-07-21T01:15:34;22.50;99.90
10536;DHT22;5316;49.538;8.352;2022-07-21T01:18:01;22.60;99.90
10536;DHT22;5316;49.538;8.352;2022-07-21T01:20:32;22.50;99.90
10536;DHT22;5316;49.538;8.352;2022-07-21T01:23:00;22.50;99.90
10536;DHT22;5316;49.538;8.352;2022-07-21T01:25:27;22.50;99.90
10536;DHT22;5316;49.538;8.352;2022-07-21T01:27:54;22.50;99.90
10536;DHT22;5316;49.538;8.352;2022-07-21T01:30:21;22.50;99.90
10536;DHT22;5316;49.538;8.352;2022-07-21T01:32:48;22.50;99.90
10536;DHT22;5316;49.538;8.352;2022-07-21T01:35:16;22.50;99.90
10536;DHT22;5316;49.538;8.352;2022-07-21T01:37:45;22.50;99.90
10536;DHT22;5316;49.538;8.352;2022-07-21T01:40:14;22.40;99.90
10536;DHT22;5316;49.538;8.352;2022-07-21T01:42:58;22.30;99.90
10536;DHT22;5316;49.538;8.352;2022-07-21T01:45:25;22.30;99.90
10536;DHT22;5316;49.538;8.352;2022-07-21T01:47:52;22.30;99.90
10536;DHT22;5316;49.538;8.352;2022-07-21T01:50:19;22.30;99.90
10536;DHT22;5316;49.538;8.352;2022-07-21T01:52:52;22.40;99.90
10536;DHT22;5316;49.538;8.352;2022-07-21T01:55:20;22.40;99.90
10536;DHT22;5316;49.538;8.352;2022-07-21T01:57:47;22.40;99.90
10536;DHT22;5316;49.538;8.352;2022-07-21T02:00:14;22.40;99.90
10536;DHT22;5316;49.538;8.352;2022-07-21T02:02:40;22.40;99.90
10536;DHT22;5316;49.538;8.352;2022-07-21T02:05:07;22.40;99.90
10536;DHT22;5316;49.538;8.352;2022-07-21T02:07:34;22.30;99.90
10536;DHT22;5316;49.538;8.352;2022-07-21T02:10:01;22.30;99.90
10536;DHT22;5316;49.538;8.352;2022-07-21T02:12:29;22.30;99.90
10536;DHT22;5316;49.538;8.352;2022-07-21T02:14:55;22.20;99.90
10536;DHT22;5316;49.538;8.352;2022-07-21T02:17:22;22.00;99.90
10536;DHT22;5316;49.538;8.352;2022-07-21T02:19:49;21.90;99.90
10536;DHT22;5316;49.538;8.352;2022-07-21T02:22:15;21.80;99.90
10536;DHT22;5316;49.538;8.352;2022-07-21T02:24:42;21.70;99.90
10536;DHT22;5316;49.538;8.352;2022-07-21T02:27:09;21.70;99.90
10536;DHT22;5316;49.538;8.352;2022-07-21T02:29:37;21.70;99.90
10536;DHT22;5316;49.538;8.352;2022-07-21T02:32:05;21.70;99.90
10536;DHT22;5316;49.538;8.352;2022-07-21T02:34:31;21.70;99.90
10536;DHT22;5316;49.538;8.352;2022-07-21T02:36:58;21.70;99.90
10536;DHT22;5316;49.538;8.352;2022-07-21T02:39:25;21.70;99.90
10536;DHT22;5316;49.538;8.352;2022-07-21T02:41:51;21.80;99.90
10536;DHT22;5316;49.538;8.352;2022-07-21T02:44:18;21.80;99.90
10536;DHT22;5316;49.538;8.352;2022-07-21T02:46:46;21.80;99.90
10536;DHT22;5316;49.538;8.352;2022-07-21T02:49:13;21.90;99.90
10536;DHT22;5316;49.538;8.352;2022-07-21T02:51:39;21.90;99.90
10536;DHT22;5316;49.538;8.352;2022-07-21T02:54:06;21.90;99.90
10536;DHT22;5316;49.538;8.352;2022-07-21T02:56:33;22.00;99.90
10536;DHT22;5316;49.538;8.352;2022-07-21T02:58:59;21.90;99.90
10536;DHT22;5316;49.538;8.352;2022-07-21T03:01:26;21.90;99.90
10536;DHT22;5316;49.538;8.352;2022-07-21T03:03:54;21.90;99.90
10536;DHT22;5316;49.538;8.352;2022-07-21T03:06:21;21.80;99.90
10536;DHT22;5316;49.538;8.352;2022-07-21T03:08:48;21.80;99.90
10536;DHT22;5316;49.538;8.352;2022-07-21T03:11:15;21.80;99.90
10536;DHT22;5316;49.538;8.352;2022-07-21T03:13:41;21.70;99.90
10536;DHT22;5316;49.538;8.352;2022-07-21T03:16:08;21.70;99.90
10536;DHT22;5316;49.538;8.352;2022-07-21T03:18:35;21.70;99.90
10536;DHT22;5316;49.538;8.352;2022-07-21T03:21:03;21.60;99.90
10536;DHT22;5316;49.538;8.352;2022-07-21T03:23:30;21.60;99.90
10536;DHT22;5316;49.538;8.352;2022-07-21T03:25:57;21.40;99.90
10536;DHT22;5316;49.538;8.352;2022-07-21T03:28:24;21.40;99.90
10536;DHT22;5316;49.538;8.352;2022-07-21T03:30:51;21.30;99.90
10536;DHT22;5316;49.538;8.352;2022-07-21T03:33:18;21.30;99.90
10536;DHT22;5316;49.538;8.352;2022-07-21T03:35:45;21.40;99.90
10536;DHT22;5316;49.538;8.352;2022-07-21T03:38:13;21.40;99.90
10536;DHT22;5316;49.538;8.352;2022-07-21T03:40:40;21.40;99.90
10536;DHT22;5316;49.538;8.352;2022-07-21T03:43:07;21.40;99.90
10536;DHT22;5316;49.538;8.352;2022-07-21T03:45:35;21.40;99.90
10536;DHT22;5316;49.538;8.352;2022-07-21T03:48:04;21.40;99.90
10536;DHT22;5316;49.538;8.352;2022-07-21T03:50:31;21.40;99.90
10536;DHT22;5316;49.538;8.352;2022-07-21T03:52:59;21.30;99.90
10536;DHT22;5316;49.538;8.352;2022-07-21T03:55:27;21.30;99.90
10536;DHT22;5316;49.538;8.352;2022-07-21T03:57:57;21.30;99.90
10536;DHT22;5316;49.538;8.352;2022-07-21T04:00:26;21.30;99.90
10536;DHT22;5316;49.538;8.352;2022-07-21T04:02:53;21.40;99.90
10536;DHT22;5316;49.538;8.352;2022-07-21T04:05:20;21.40;99.90
10536;DHT22;5316;49.538;8.352;2022-07-21T04:07:48;21.40;99.90
10536;DHT22;5316;49.538;8.352;2022-07-21T04:10:17;21.40;99.90
10536;DHT22;5316;49.538;8.352;2022-07-21T04:12:46;21.30;99.90
10536;DHT22;5316;49.538;8.352;2022-07-21T04:15:13;21.30;99.90
10536;DHT22;5316;49.538;8.352;2022-07-21T04:17:40;21.30;99.90
10536;DHT22;5316;49.538;8.352;2022-07-21T04:20:08;21.20;99.90
10536;DHT22;5316;49.538;8.352;2022-07-21T04:22:35;21.30;99.90
10536;DHT22;5316;49.538;8.352;2022-07-21T04:25:03;21.30;99.90
10536;DHT22;5316;49.538;8.352;2022-07-21T04:27:31;21.30;99.90
10536;DHT22;5316;49.538;8.352;2022-07-21T04:29:59;21.30;99.90
10536;DHT22;5316;49.538;8.352;2022-07-21T04:32:26;21.30;99.90
10536;DHT22;5316;49.538;8.352;2022-07-21T04:34:53;21.30;99.90
10536;DHT22;5316;49.538;8.352;2022-07-21T04:37:20;21.20;99.90
10536;DHT22;5316;49.538;8.352;2022-07-21T04:39:47;21.20;99.90
10536;DHT22;5316;49.538;8.352;2022-07-21T04:42:14;21.20;99.90
10536;DHT22;5316;49.538;8.352;2022-07-21T04:44:41;21.20;99.90
10536;DHT22;5316;49.538;8.352;2022-07-21T04:47:09;21.30;99.90
10536;DHT22;5316;49.538;8.352;2022-07-21T04:49:36;21.30;99.90
10536;DHT22;5316;49.538;8.352;2022-07-21T04:52:03;21.40;99.90
10536;DHT22;5316;49.538;8.352;2022-07-21T04:54:30;21.40;99.90
10536;DHT22;5316;49.538;8.352;2022-07-21T04:56:57;21.50;99.90
10536;DHT22;5316;49.538;8.352;2022-07-21T04:59:24;21.60;99.90
10536;DHT22;5316;49.538;8.352;2022-07-21T05:01:51;21.60;99.90
10536;DHT22;5316;49.538;8.352;2022-07-21T05:04:19;21.60;99.90
10536;DHT22;5316;49.538;8.352;2022-07-21T05:06:46;21.50;99.90
10536;DHT22;5316;49.538;8.352;2022-07-21T05:09:12;21.60;99.90
10536;DHT22;5316;49.538;8.352;2022-07-21T05:11:39;21.60;99.90
10536;DHT22;5316;49.538;8.352;2022-07-21T05:14:06;21.60;99.90
10536;DHT22;5316;49.538;8.352;2022-07-21T05:16:33;21.60;99.90
10536;DHT22;5316;49.538;8.352;2022-07-21T05:19:01;21.70;99.90
10536;DHT22;5316;49.538;8.352;2022-07-21T05:21:29;21.70;99.90
10536;DHT22;5316;49.538;8.352;2022-07-21T05:23:56;21.70;99.90
10536;DHT22;5316;49.538;8.352;2022-07-21T05:26:22;21.70;99.90
10536;DHT22;5316;49.538;8.352;2022-07-21T05:28:50;21.70;99.90
10536;DHT22;5316;49.538;8.352;2022-07-21T05:31:17;21.70;99.90
10536;DHT22;5316;49.538;8.352;2022-07-21T05:33:44;21.70;99.90
10536;DHT22;5316;49.538;8.352;2022-07-21T05:36:10;21.70;99.90
10536;DHT22;5316;49.538;8.352;2022-07-21T05:38:38;21.60;99.90
10536;DHT22;5316;49.538;8.352;2022-07-21T05:41:05;21.60;99.90
10536;DHT22;5316;49.538;8.352;2022-07-21T05:43:32;21.60;99.90
10536;DHT22;5316;49.538;8.352;2022-07-21T05:45:59;21.60;99.90
10536;DHT22;5316;49.538;8.352;2022-07-21T05:48:26;21.60;99.90
10536;DHT22;5316;49.538;8.352;2022-07-21T05:50:53;21.60;99.90
10536;DHT22;5316;49.538;8.352;2022-07-21T05:53:19;21.70;99.90
10536;DHT22;5316;49.538;8.352;2022-07-21T05:55:49;21.80;99.90
10536;DHT22;5316;49.538;8.352;2022-07-21T05:58:15;21.90;99.90
10536;DHT22;5316;49.538;8.352;2022-07-21T06:00:44;22.00;99.90
10536;DHT22;5316;49.538;8.352;2022-07-21T06:03:30;22.00;99.90
10536;DHT22;5316;49.538;8.352;2022-07-21T06:05:57;22.00;99.90
10536;DHT22;5316;49.538;8.352;2022-07-21T06:08:24;22.10;99.90
10536;DHT22;5316;49.538;8.352;2022-07-21T06:10:52;22.20;99.90
10536;DHT22;5316;49.538;8.352;2022-07-21T06:13:19;22.30;99.90
10536;DHT22;5316;49.538;8.352;2022-07-21T06:15:45;22.40;99.90
10536;DHT22;5316;49.538;8.352;2022-07-21T06:18:12;22.50;99.90
10536;DHT22;5316;49.538;8.352;2022-07-21T06:20:39;22.40;99.90
10536;DHT22;5316;49.538;8.352;2022-07-21T06:23:06;22.50;99.90
10536;DHT22;5316;49.538;8.352;2022-07-21T06:25:33;22.50;99.90
10536;DHT22;5316;49.538;8.352;2022-07-21T06:28:01;22.50;99.90
10536;DHT22;5316;49.538;8.352;2022-07-21T06:30:28;22.50;99.90
10536;DHT22;5316;49.538;8.352;2022-07-21T06:32:55;22.50;99.90
10536;DHT22;5316;49.538;8.352;2022-07-21T06:35:22;22.50;99.90
10536;DHT22;5316;49.538;8.352;2022-07-21T06:37:48;22.60;99.90
10536;DHT22;5316;49.538;8.352;2022-07-21T06:40:15;22.60;99.90
10536;DHT22;5316;49.538;8.352;2022-07-21T06:42:42;22.70;99.90
10536;DHT22;5316;49.538;8.352;2022-07-21T06:45:10;22.80;99.90
10536;DHT22;5316;49.538;8.352;2022-07-21T06:47:37;22.70;99.90
10536;DHT22;5316;49.538;8.352;2022-07-21T06:50:04;22.60;99.90
10536;DHT22;5316;49.538;8.352;2022-07-21T06:52:34;22.60;99.90
10536;DHT22;5316;49.538;8.352;2022-07-21T06:55:01;22.80;99.90
10536;DHT22;5316;49.538;8.352;2022-07-21T06:57:28;22.60;99.90
10536;DHT22;5316;49.538;8.352;2022-07-21T06:59:55;22.60;99.90
10536;DHT22;5316;49.538;8.352;2022-07-21T07:02:23;22.60;99.90
10536;DHT22;5316;49.538;8.352;2022-07-21T07:04:49;22.80;99.90
10536;DHT22;5316;49.538;8.352;2022-07-21T07:07:16;22.50;99.90
10536;DHT22;5316;49.538;8.352;2022-07-21T07:09:43;22.50;99.90
10536;DHT22;5316;49.538;8.352;2022-07-21T07:12:09;22.50;99.90
10536;DHT22;5316;49.538;8.352;2022-07-21T07:14:36;22.50;99.90
10536;DHT22;5316;49.538;8.352;2022-07-21T07:17:03;22.60;99.90
10536;DHT22;5316;49.538;8.352;2022-07-21T07:19:32;22.70;99.90
10536;DHT22;5316;49.538;8.352;2022-07-21T07:21:58;22.70;99.90
10536;DHT22;5316;49.538;8.352;2022-07-21T07:24:25;23.10;99.90
10536;DHT22;5316;49.538;8.352;2022-07-21T07:26:52;23.00;99.90
10536;DHT22;5316;49.538;8.352;2022-07-21T07:29:19;23.10;99.90
10536;DHT22;5316;49.538;8.352;2022-07-21T07:31:46;23.10;99.90
10536;DHT22;5316;49.538;8.352;2022-07-21T07:34:13;23.10;99.90
10536;DHT22;5316;49.538;8.352;2022-07-21T07:36:41;23.30;99.90
10536;DHT22;5316;49.538;8.352;2022-07-21T07:39:08;23.40;99.90
10536;DHT22;5316;49.538;8.352;2022-07-21T07:41:35;23.50;99.90
10536;DHT22;5316;49.538;8.352;2022-07-21T07:44:01;23.60;99.90
10536;DHT22;5316;49.538;8.352;2022-07-21T07:46:28;23.70;99.90
10536;DHT22;5316;49.538;8.352;2022-07-21T07:48:55;23.70;99.90
10536;DHT22;5316;49.538;8.352;2022-07-21T07:51:22;23.70;99.90
10536;DHT22;5316;49.538;8.352;2022-07-21T07:53:51;23.80;99.90
10536;DHT22;5316;49.538;8.352;2022-07-21T07:56:19;23.80;99.90
10536;DHT22;5316;49.538;8.352;2022-07-21T07:58:45;23.70;99.90
10536;DHT22;5316;49.538;8.352;2022-07-21T08:01:12;23.80;99.90
10536;DHT22;5316;49.538;8.352;2022-07-21T08:03:41;23.90;99.90
10536;DHT22;5316;49.538;8.352;2022-07-21T08:06:08;24.00;99.90
10536;DHT22;5316;49.538;8.352;2022-07-21T08:08:42;24.10;99.90
10536;DHT22;5316;49.538;8.352;2022-07-21T08:11:10;24.40;99.90
10536;DHT22;5316;49.538;8.352;2022-07-21T08:13:38;24.50;99.90
10536;DHT22;5316;49.538;8.352;2022-07-21T08:16:05;24.60;99.90
10536;DHT22;5316;49.538;8.352;2022-07-21T08:18:32;24.70;99.90
10536;DHT22;5316;49.538;8.352;2022-07-21T08:20:59;24.80;99.90
10536;DHT22;5316;49.538;8.352;2022-07-21T08:23:26;24.90;99.90
10536;DHT22;5316;49.538;8.352;2022-07-21T08:25:53;25.00;99.90
10536;DHT22;5316;49.538;8.352;2022-07-21T08:28:21;24.90;99.90
10536;DHT22;5316;49.538;8.352;2022-07-21T08:30:47;25.00;99.90
10536;DHT22;5316;49.538;8.352;2022-07-21T08:33:14;25.10;99.90
10536;DHT22;5316;49.538;8.352;2022-07-21T08:35:41;25.20;99.90
10536;DHT22;5316;49.538;8.352;2022-07-21T08:38:09;25.10;99.90
10536;DHT22;5316;49.538;8.352;2022-07-21T08:40:46;25.10;99.90
10536;DHT22;5316;49.538;8.352;2022-07-21T08:43:16;25.10;99.90
10536;DHT22;5316;49.538;8.352;2022-07-21T08:45:44;24.90;99.90
10536;DHT22;5316;49.538;8.352;2022-07-21T08:48:11;24.80;99.90
10536;DHT22;5316;49.538;8.352;2022-07-21T08:50:40;24.70;99.90
10536;DHT22;5316;49.538;8.352;2022-07-21T08:53:07;24.80;99.90
10536;DHT22;5316;49.538;8.352;2022-07-21T08:55:35;25.00;99.90
10536;DHT22;5316;49.538;8.352;2022-07-21T08:58:02;25.10;99.90
10536;DHT22;5316;49.538;8.352;2022-07-21T09:00:30;25.00;99.90
10536;DHT22;5316;49.538;8.352;2022-07-21T09:03:15;25.10;99.90
10536;DHT22;5316;49.538;8.352;2022-07-21T09:05:43;25.10;99.90
10536;DHT22;5316;49.538;8.352;2022-07-21T09:08:10;25.00;99.90
10536;DHT22;5316;49.538;8.352;2022-07-21T09:10:37;25.00;99.90
10536;DHT22;5316;49.538;8.352;2022-07-21T09:13:05;24.90;99.90
10536;DHT22;5316;49.538;8.352;2022-07-21T09:15:35;24.90;99.90
10536;DHT22;5316;49.538;8.352;2022-07-21T09:18:08;24.90;99.90
10536;DHT22;5316;49.538;8.352;2022-07-21T09:20:38;24.90;99.90
10536;DHT22;5316;49.538;8.352;2022-07-21T09:23:08;25.00;99.90
10536;DHT22;5316;49.538;8.352;2022-07-21T09:25:38;25.10;99.90
10536;DHT22;5316;49.538;8.352;2022-07-21T09:28:13;25.10;99.90
10536;DHT22;5316;49.538;8.352;2022-07-21T09:30:57;25.10;99.90
10536;DHT22;5316;49.538;8.352;2022-07-21T09:33:26;25.30;99.90
10536;DHT22;5316;49.538;8.352;2022-07-21T09:36:01;25.50;99.90
10536;DHT22;5316;49.538;8.352;2022-07-21T09:38:30;25.60;99.90
10536;DHT22;5316;49.538;8.352;2022-07-21T09:41:05;25.70;99.90
10536;DHT22;5316;49.538;8.352;2022-07-21T09:43:34;25.60;99.90
10536;DHT22;5316;49.538;8.352;2022-07-21T09:46:03;25.70;99.90
10536;DHT22;5316;49.538;8.352;2022-07-21T09:48:35;25.80;99.90
10536;DHT22;5316;49.538;8.352;2022-07-21T09:51:29;25.90;99.90
10536;DHT22;5316;49.538;8.352;2022-07-21T09:53:59;26.00;98.40
10536;DHT22;5316;49.538;8.352;2022-07-21T09:56:29;26.00;99.90
10536;DHT22;5316;49.538;8.352;2022-07-21T09:58:57;26.00;99.90
10536;DHT22;5316;49.538;8.352;2022-07-21T10:01:25;25.90;99.90
10536;DHT22;5316;49.538;8.352;2022-07-21T10:03:53;25.70;99.90
10536;DHT22;5316;49.538;8.352;2022-07-21T10:06:24;25.90;99.90
10536;DHT22;5316;49.538;8.352;2022-07-21T10:08:55;26.00;99.90
10536;DHT22;5316;49.538;8.352;2022-07-21T10:11:22;26.10;99.90
10536;DHT22;5316;49.538;8.352;2022-07-21T10:13:50;26.20;99.20
10536;DHT22;5316;49.538;8.352;2022-07-21T10:16:17;26.20;99.90
10536;DHT22;5316;49.538;8.352;2022-07-21T10:18:54;26.30;99.50
10536;DHT22;5316;49.538;8.352;2022-07-21T10:21:32;26.10;99.90
10536;DHT22;5316;49.538;8.352;2022-07-21T10:24:04;26.00;99.90
10536;DHT22;5316;49.538;8.352;2022-07-21T10:26:31;25.80;99.90
10536;DHT22;5316;49.538;8.352;2022-07-21T10:28:58;25.70;99.90
10536;DHT22;5316;49.538;8.352;2022-07-21T10:31:26;25.60;99.90
10536;DHT22;5316;49.538;8.352;2022-07-21T10:33:59;25.40;99.90
10536;DHT22;5316;49.538;8.352;2022-07-21T10:36:41;25.40;99.90
10536;DHT22;5316;49.538;8.352;2022-07-21T10:39:25;25.50;99.90
10536;DHT22;5316;49.538;8.352;2022-07-21T10:41:56;25.60;99.90
10536;DHT22;5316;49.538;8.352;2022-07-21T10:44:39;25.60;99.90
10536;DHT22;5316;49.538;8.352;2022-07-21T10:47:10;25.70;99.50
10536;DHT22;5316;49.538;8.352;2022-07-21T10:49:43;25.60;99.90
10536;DHT22;5316;49.538;8.352;2022-07-21T10:52:55;25.60;99.90
10536;DHT22;5316;49.538;8.352;2022-07-21T10:55:25;25.70;98.90
10536;DHT22;5316;49.538;8.352;2022-07-21T11:01:05;25.90;97.90
10536;DHT22;5316;49.538;8.352;2022-07-21T11:03:34;25.80;98.50
10536;DHT22;5316;49.538;8.352;2022-07-21T11:06:15;25.90;98.60
10536;DHT22;5316;49.538;8.352;2022-07-21T11:08:43;26.10;96.50
10536;DHT22;5316;49.538;8.352;2022-07-21T11:11:14;26.10;95.20
10536;DHT22;5316;49.538;8.352;2022-07-21T11:14:05;26.20;95.20
10536;DHT22;5316;49.538;8.352;2022-07-21T11:19:30;26.30;95.00
10536;DHT22;5316;49.538;8.352;2022-07-21T11:21:59;26.40;93.80
10536;DHT22;5316;49.538;8.352;2022-07-21T11:24:27;26.60;92.80
10536;DHT22;5316;49.538;8.352;2022-07-21T11:26:56;26.70;92.60
10536;DHT22;5316;49.538;8.352;2022-07-21T11:29:24;26.90;93.10
10536;DHT22;5316;49.538;8.352;2022-07-21T11:31:51;27.10;92.30
10536;DHT22;5316;49.538;8.352;2022-07-21T11:34:19;27.10;91.30
10536;DHT22;5316;49.538;8.352;2022-07-21T11:36:46;27.10;90.70
10536;DHT22;5316;49.538;8.352;2022-07-21T11:39:14;27.00;90.60
10536;DHT22;5316;49.538;8.352;2022-07-21T11:41:44;26.90;91.60
10536;DHT22;5316;49.538;8.352;2022-07-21T11:44:22;27.00;92.40
10536;DHT22;5316;49.538;8.352;2022-07-21T11:46:51;27.10;91.30
10536;DHT22;5316;49.538;8.352;2022-07-21T11:49:18;27.10;90.30
10536;DHT22;5316;49.538;8.352;2022-07-21T11:51:46;27.20;90.60
10536;DHT22;5316;49.538;8.352;2022-07-21T11:54:28;27.40;90.60
10536;DHT22;5316;49.538;8.352;2022-07-21T11:56:57;27.50;88.80
10536;DHT22;5316;49.538;8.352;2022-07-21T11:59:27;27.70;87.60
10536;DHT22;5316;49.538;8.352;2022-07-21T12:01:57;27.80;86.80
10536;DHT22;5316;49.538;8.352;2022-07-21T12:04:46;27.80;86.10
10536;DHT22;5316;49.538;8.352;2022-07-21T12:07:17;27.70;86.40
10536;DHT22;5316;49.538;8.352;2022-07-21T12:09:46;27.70;86.70
10536;DHT22;5316;49.538;8.352;2022-07-21T12:12:13;27.50;87.40
10536;DHT22;5316;49.538;8.352;2022-07-21T12:14:44;27.50;89.20
10536;DHT22;5316;49.538;8.352;2022-07-21T12:17:11;27.60;88.10
10536;DHT22;5316;49.538;8.352;2022-07-21T12:19:38;27.60;86.60
10536;DHT22;5316;49.538;8.352;2022-07-21T12:22:05;27.60;86.70
10536;DHT22;5316;49.538;8.352;2022-07-21T12:24:48;27.50;86.40
10536;DHT22;5316;49.538;8.352;2022-07-21T12:27:18;27.30;86.40
10536;DHT22;5316;49.538;8.352;2022-07-21T12:29:47;27.20;86.60
10536;DHT22;5316;49.538;8.352;2022-07-21T12:32:15;27.10;87.30
10536;DHT22;5316;49.538;8.352;2022-07-21T12:35:02;27.20;88.40
10536;DHT22;5316;49.538;8.352;2022-07-21T12:37:50;27.20;88.40
10536;DHT22;5316;49.538;8.352;2022-07-21T12:40:18;27.10;89.00
10536;DHT22;5316;49.538;8.352;2022-07-21T12:42:45;27.20;89.10
10536;DHT22;5316;49.538;8.352;2022-07-21T12:45:16;27.30;88.90
10536;DHT22;5316;49.538;8.352;2022-07-21T12:48:07;27.30;86.50
10536;DHT22;5316;49.538;8.352;2022-07-21T12:50:34;27.40;86.40
10536;DHT22;5316;49.538;8.352;2022-07-21T12:53:04;27.50;85.40
10536;DHT22;5316;49.538;8.352;2022-07-21T12:55:31;27.60;85.90
10536;DHT22;5316;49.538;8.352;2022-07-21T12:57:58;27.80;83.90
10536;DHT22;5316;49.538;8.352;2022-07-21T13:00:26;28.10;83.30
10536;DHT22;5316;49.538;8.352;2022-07-21T13:02:55;28.30;82.20
10536;DHT22;5316;49.538;8.352;2022-07-21T13:05:24;28.50;81.80
10536;DHT22;5316;49.538;8.352;2022-07-21T13:07:54;28.60;81.10
10536;DHT22;5316;49.538;8.352;2022-07-21T13:10:21;28.60;81.50
10536;DHT22;5316;49.538;8.352;2022-07-21T13:12:47;28.40;81.60
10536;DHT22;5316;49.538;8.352;2022-07-21T13:15:15;28.30;82.50
10536;DHT22;5316;49.538;8.352;2022-07-21T13:17:44;28.20;82.70
10536;DHT22;5316;49.538;8.352;2022-07-21T13:20:11;28.20;82.60
10536;DHT22;5316;49.538;8.352;2022-07-21T13:22:38;28.30;81.00
10536;DHT22;5316;49.538;8.352;2022-07-21T13:25:05;28.30;80.00
10536;DHT22;5316;49.538;8.352;2022-07-21T13:27:32;28.40;80.00
10536;DHT22;5316;49.538;8.352;2022-07-21T13:30:00;28.40;80.00
10536;DHT22;5316;49.538;8.352;2022-07-21T13:32:26;28.40;80.00
10536;DHT22;5316;49.538;8.352;2022-07-21T13:34:55;28.40;79.90
10536;DHT22;5316;49.538;8.352;2022-07-21T13:37:22;28.40;80.20
10536;DHT22;5316;49.538;8.352;2022-07-21T13:39:49;28.40;80.40
10536;DHT22;5316;49.538;8.352;2022-07-21T13:42:15;28.60;80.30
10536;DHT22;5316;49.538;8.352;2022-07-21T13:44:42;29.00;78.20
10536;DHT22;5316;49.538;8.352;2022-07-21T13:47:09;29.20;75.80
10536;DHT22;5316;49.538;8.352;2022-07-21T13:49:36;29.20;75.60
10536;DHT22;5316;49.538;8.352;2022-07-21T13:52:04;29.10;73.60
10536;DHT22;5316;49.538;8.352;2022-07-21T13:54:31;29.20;72.80
10536;DHT22;5316;49.538;8.352;2022-07-21T13:56:58;29.60;71.60
10536;DHT22;5316;49.538;8.352;2022-07-21T13:59:25;29.90;70.60
10536;DHT22;5316;49.538;8.352;2022-07-21T14:01:52;30.30;69.40
10536;DHT22;5316;49.538;8.352;2022-07-21T14:04:19;30.50;67.90
10536;DHT22;5316;49.538;8.352;2022-07-21T14:06:45;30.30;68.20
10536;DHT22;5316;49.538;8.352;2022-07-21T14:09:16;30.20;68.70
10536;DHT22;5316;49.538;8.352;2022-07-21T14:11:43;30.70;67.70
10536;DHT22;5316;49.538;8.352;2022-07-21T14:14:10;31.00;66.50
10536;DHT22;5316;49.538;8.352;2022-07-21T14:16:42;31.60;65.80
10536;DHT22;5316;49.538;8.352;2022-07-21T14:19:09;32.20;64.10
10536;DHT22;5316;49.538;8.352;2022-07-21T14:21:36;32.80;62.70
10536;DHT22;5316;49.538;8.352;2022-07-21T14:24:03;32.80;62.10
10536;DHT22;5316;49.538;8.352;2022-07-21T14:26:49;32.60;62.20
10536;DHT22;5316;49.538;8.352;2022-07-21T14:29:15;32.30;62.70
10536;DHT22;5316;49.538;8.352;2022-07-21T14:31:42;31.90;63.50
10536;DHT22;5316;49.538;8.352;2022-07-21T14:34:09;31.40;64.50
10536;DHT22;5316;49.538;8.352;2022-07-21T14:36:36;31.00;65.70
10536;DHT22;5316;49.538;8.352;2022-07-21T14:39:03;30.50;67.40
10536;DHT22;5316;49.538;8.352;2022-07-21T14:41:30;30.90;66.00
10536;DHT22;5316;49.538;8.352;2022-07-21T14:43:58;31.30;64.90
10536;DHT22;5316;49.538;8.352;2022-07-21T14:46:25;31.40;63.70
10536;DHT22;5316;49.538;8.352;2022-07-21T14:48:51;31.20;63.00
10536;DHT22;5316;49.538;8.352;2022-07-21T14:51:18;31.20;64.00
10536;DHT22;5316;49.538;8.352;2022-07-21T14:53:45;31.50;62.40
10536;DHT22;5316;49.538;8.352;2022-07-21T14:56:12;31.50;62.20
10536;DHT22;5316;49.538;8.352;2022-07-21T14:58:39;31.10;62.50
10536;DHT22;5316;49.538;8.352;2022-07-21T15:01:08;30.50;64.20
10536;DHT22;5316;49.538;8.352;2022-07-21T15:03:37;30.50;65.30
10536;DHT22;5316;49.538;8.352;2022-07-21T15:06:04;30.80;64.90
10536;DHT22;5316;49.538;8.352;2022-07-21T15:08:32;31.30;63.60
10536;DHT22;5316;49.538;8.352;2022-07-21T15:10:58;31.60;63.20
10536;DHT22;5316;49.538;8.352;2022-07-21T15:13:26;32.00;62.40
10536;DHT22;5316;49.538;8.352;2022-07-21T15:15:54;32.80;61.00
10536;DHT22;5316;49.538;8.352;2022-07-21T15:18:22;33.50;58.40
10536;DHT22;5316;49.538;8.352;2022-07-21T15:20:49;33.90;56.30
10536;DHT22;5316;49.538;8.352;2022-07-21T15:23:16;33.50;56.30
10536;DHT22;5316;49.538;8.352;2022-07-21T15:25:42;33.70;57.00
10536;DHT22;5316;49.538;8.352;2022-07-21T15:28:09;33.90;55.70
10536;DHT22;5316;49.538;8.352;2022-07-21T15:30:36;33.90;55.40
10536;DHT22;5316;49.538;8.352;2022-07-21T15:33:02;33.70;55.00
10536;DHT22;5316;49.538;8.352;2022-07-21T15:35:31;33.50;55.70
10536;DHT22;5316;49.538;8.352;2022-07-21T15:37:57;33.70;55.90
10536;DHT22;5316;49.538;8.352;2022-07-21T15:40:24;33.50;56.20
10536;DHT22;5316;49.538;8.352;2022-07-21T15:42:51;33.50;55.70
10536;DHT22;5316;49.538;8.352;2022-07-21T15:45:18;33.20;56.10
10536;DHT22;5316;49.538;8.352;2022-07-21T15:47:44;32.80;56.80
10536;DHT22;5316;49.538;8.352;2022-07-21T15:50:11;32.30;58.00
10536;DHT22;5316;49.538;8.352;2022-07-21T15:52:39;32.00;59.30
10536;DHT22;5316;49.538;8.352;2022-07-21T15:55:07;31.60;59.80
10536;DHT22;5316;49.538;8.352;2022-07-21T15:57:36;31.20;60.60
10536;DHT22;5316;49.538;8.352;2022-07-21T16:00:04;31.00;60.80